createdAt,value
2018-11-13T00:00:24.728Z,95941.59
2018-11-13T00:02:53.860Z,95935.38
2018-11-13T00:05:22.983Z,95936.77
2018-11-13T00:07:51.409Z,95935.26
2018-11-13T00:10:19.872Z,95941.14
2018-11-13T00:12:48.310Z,95946.21
2018-11-13T00:15:17.040Z,95946.80
2018-11-13T00:17:45.487Z,95943.89
2018-11-13T00:20:15.099Z,95942.94
2018-11-13T00:22:43.956Z,95933.03
2018-11-13T00:25:14.635Z,95940.45
2018-11-13T00:27:43.473Z,95944.48
2018-11-13T00:30:15.937Z,95946.37
2018-11-13T00:32:44.738Z,95941.76
2018-11-13T00:35:13.979Z,95946.59
2018-11-13T00:37:42.499Z,95943.40
2018-11-13T00:40:12.054Z,95936.31
2018-11-13T00:42:41.329Z,95950.11
2018-11-13T00:45:09.842Z,95953.17
2018-11-13T00:47:38.267Z,95953.30
2018-11-13T00:50:08.875Z,95952.21
2018-11-13T00:52:37.295Z,95947.02
2018-11-13T00:55:06.236Z,95954.18
2018-11-13T00:57:34.791Z,95952.34
2018-11-13T01:00:08.687Z,95948.97
2018-11-13T01:02:37.151Z,95944.43
2018-11-13T01:05:08.045Z,95943.80
2018-11-13T01:07:36.463Z,95939.84
2018-11-13T01:10:05.480Z,95943.78
2018-11-13T01:12:33.950Z,95944.64
2018-11-13T01:15:04.614Z,95947.23
2018-11-13T01:17:33.369Z,95940.22
2018-11-13T01:20:04.417Z,95941.77
2018-11-13T01:22:32.929Z,95934.02
2018-11-13T01:25:03.482Z,95935.77
2018-11-13T01:27:31.886Z,95931.33
2018-11-13T01:30:00.296Z,95939.75
2018-11-13T01:32:29.703Z,95933.58
2018-11-13T01:34:58.135Z,95937.02
2018-11-13T01:37:26.657Z,95935.87
2018-11-13T01:39:55.483Z,95934.56
2018-11-13T01:42:24.444Z,95933.05
2018-11-13T01:44:52.953Z,95931.84
2018-11-13T01:47:21.367Z,95926.56
2018-11-13T01:49:49.798Z,95923.84
2018-11-13T01:52:54.503Z,95921.02
2018-11-13T01:58:40.435Z,95922.66
2018-11-13T02:05:06.828Z,95913.94
2018-11-13T02:07:35.481Z,95913.31
2018-11-13T02:10:05.281Z,95915.57
2018-11-13T02:12:44.638Z,95927.73
2018-11-13T02:15:16.464Z,95922.74
2018-11-13T02:17:45.028Z,95923.95
2018-11-13T02:20:16.312Z,95926.31
2018-11-13T02:22:44.885Z,95919.34
2018-11-13T02:25:14.847Z,95916.54
2018-11-13T02:27:43.803Z,95920.53
2018-11-13T02:30:14.561Z,95926.56
2018-11-13T02:32:43.720Z,95922.32
2018-11-13T02:35:12.646Z,95926.06
2018-11-13T02:37:41.279Z,95921.45
2018-11-13T02:40:10.165Z,95915.66
2018-11-13T02:42:39.177Z,95916.45
2018-11-13T02:45:14.477Z,95907.42
2018-11-13T02:47:43.168Z,95910.08
2018-11-13T02:50:17.253Z,95908.44
2018-11-13T02:52:52.161Z,95904.30
2018-11-13T02:55:20.729Z,95905.09
2018-11-13T02:57:49.212Z,95898.93
2018-11-13T03:00:20.203Z,95901.31
2018-11-13T03:02:48.782Z,95897.67
2018-11-13T03:05:18.466Z,95888.67
2018-11-13T03:07:46.997Z,95894.28
2018-11-13T03:10:16.785Z,95894.75
2018-11-13T03:12:45.361Z,95902.63
2018-11-13T03:15:17.949Z,95904.30
2018-11-13T03:17:46.440Z,95901.70
2018-11-13T03:20:18.104Z,95900.52
2018-11-13T03:22:47.200Z,95905.21
2018-11-13T03:25:16.938Z,95903.84
2018-11-13T03:27:45.437Z,95897.93
2018-11-13T03:30:25.077Z,95899.89
2018-11-13T03:33:00.207Z,95898.84
2018-11-13T03:35:29.528Z,95903.65
2018-11-13T03:37:58.397Z,95903.48
2018-11-13T03:40:26.928Z,95907.37
2018-11-13T03:43:04.715Z,95908.52
2018-11-13T03:45:39.634Z,95917.60
2018-11-13T03:48:08.179Z,95919.17
2018-11-13T03:50:36.672Z,95926.91
2018-11-13T03:53:05.309Z,95923.78
2018-11-13T03:55:33.848Z,95922.96
2018-11-13T03:58:06.063Z,95929.77
2018-11-13T04:00:34.589Z,95937.96
2018-11-13T04:03:05.529Z,95927.87
2018-11-13T04:05:34.036Z,95936.20
2018-11-13T04:08:05.425Z,95940.80
2018-11-13T04:10:33.961Z,95933.49
2018-11-13T04:13:04.714Z,95925.53
2018-11-13T04:15:33.245Z,95936.69
2018-11-13T04:18:03.735Z,95944.08
2018-11-13T04:20:32.223Z,95948.75
2018-11-13T04:23:00.857Z,95948.58
2018-11-13T04:25:29.346Z,95951.98
2018-11-13T04:27:57.837Z,95952.70
2018-11-13T04:30:26.375Z,95949.88
2018-11-13T04:32:54.912Z,95947.80
2018-11-13T04:35:23.452Z,95949.83
2018-11-13T04:37:51.924Z,95960.39
2018-11-13T04:40:26.883Z,95969.14
2018-11-13T04:42:55.363Z,95972.30
2018-11-13T04:45:25.118Z,95968.14
2018-11-13T04:47:53.617Z,95979.35
2018-11-13T04:50:22.994Z,95978.25
2018-11-13T04:52:51.521Z,95977.22
2018-11-13T04:55:20.352Z,95977.66
2018-11-13T04:57:49.891Z,95979.70
2018-11-13T05:00:19.775Z,95981.52
2018-11-13T05:02:48.377Z,95987.22
2018-11-13T05:05:17.909Z,96000.60
2018-11-13T05:07:47.520Z,96010.67
2018-11-13T05:10:16.161Z,96009.55
2018-11-13T05:12:45.315Z,96017.16
2018-11-13T05:15:13.851Z,96015.26
2018-11-13T05:17:43.835Z,96012.70
2018-11-13T05:20:13.522Z,96020.79
2018-11-13T05:22:42.120Z,96018.16
2018-11-13T05:25:12.728Z,96026.28
2018-11-13T05:27:41.872Z,96036.31
2018-11-13T05:30:12.999Z,96060.27
2018-11-13T05:32:41.574Z,96077.44
2018-11-13T05:35:12.423Z,96071.52
2018-11-13T05:37:42.007Z,96093.87
2018-11-13T05:40:17.509Z,96071.36
2018-11-13T05:42:46.107Z,96087.94
2018-11-13T05:45:20.034Z,96096.47
2018-11-13T05:47:48.775Z,96105.11
2018-11-13T05:50:18.024Z,96095.62
2018-11-13T05:52:47.836Z,96092.66
2018-11-13T05:55:16.864Z,96091.01
2018-11-13T05:57:45.427Z,96089.88
2018-11-13T06:00:18.013Z,96085.19
2018-11-13T06:02:46.592Z,96091.51
2018-11-13T06:05:15.270Z,96090.94
2018-11-13T06:07:43.837Z,96099.03
2018-11-13T06:10:13.280Z,96118.02
2018-11-13T06:12:42.038Z,96119.77
2018-11-13T06:15:11.079Z,96123.01
2018-11-13T06:17:39.627Z,96122.73
2018-11-13T06:20:09.673Z,96132.23
2018-11-13T06:22:38.521Z,96123.80
2018-11-13T06:25:08.866Z,96127.25
2018-11-13T06:27:38.029Z,96142.19
2018-11-13T06:30:09.823Z,96139.30
2018-11-13T06:32:38.283Z,96146.63
2018-11-13T06:35:06.856Z,96142.49
2018-11-13T06:37:35.429Z,96143.91
2018-11-13T06:40:04.637Z,96143.31
2018-11-13T06:42:33.176Z,96155.84
2018-11-13T06:45:03.693Z,96164.34
2018-11-13T06:47:32.233Z,96166.11
2018-11-13T06:50:00.805Z,96172.70
2018-11-13T06:52:29.296Z,96177.59
2018-11-13T06:55:08.251Z,96171.86
2018-11-13T06:57:36.826Z,96180.55
2018-11-13T07:00:08.879Z,96178.52
2018-11-13T07:02:38.279Z,96192.50
2018-11-13T07:05:10.395Z,96189.00
2018-11-13T07:07:42.414Z,96183.70
2018-11-13T07:17:16.991Z,96191.95
2018-11-13T07:19:45.392Z,96194.98
2018-11-13T07:22:13.858Z,96204.69
2018-11-13T07:24:42.255Z,96206.08
2018-11-13T07:27:10.715Z,96208.38
2018-11-13T07:29:39.199Z,96206.86
2018-11-13T07:32:07.599Z,96207.56
2018-11-13T07:34:36.050Z,96209.39
2018-11-13T07:37:05.242Z,96211.28
2018-11-13T07:39:33.694Z,96216.15
2018-11-13T07:42:05.106Z,96222.23
2018-11-13T07:44:33.553Z,96223.11
2018-11-13T07:47:04.400Z,96227.70
2018-11-13T07:49:32.804Z,96233.78
2018-11-13T07:52:04.407Z,96231.91
2018-11-13T07:54:34.499Z,96230.53
2018-11-13T07:57:06.530Z,96229.63
2018-11-13T07:59:35.474Z,96228.02
2018-11-13T08:02:05.952Z,96241.66
2018-11-13T08:04:35.251Z,96235.38
2018-11-13T08:07:07.355Z,96236.36
2018-11-13T08:09:36.006Z,96244.26
2018-11-13T08:12:05.756Z,96249.70
2018-11-13T08:14:34.202Z,96254.67
2018-11-13T08:17:05.475Z,96260.16
2018-11-13T08:19:33.941Z,96257.30
2018-11-13T08:22:05.364Z,96262.20
2018-11-13T08:24:33.778Z,96270.45
2018-11-13T08:27:04.538Z,96276.91
2018-11-13T08:29:33.035Z,96276.19
2018-11-13T08:32:03.678Z,96283.23
2018-11-13T08:34:32.132Z,96282.39
2018-11-13T08:37:00.578Z,96291.97
2018-11-13T08:39:28.975Z,96296.94
2018-11-13T08:41:57.426Z,96297.47
2018-11-13T08:44:25.844Z,96295.48
2018-11-13T08:46:54.299Z,96302.97
2018-11-13T08:49:22.803Z,96308.73
2018-11-13T08:51:51.230Z,96306.53
2018-11-13T08:54:19.738Z,96306.55
2018-11-13T08:56:48.131Z,96310.14
2018-11-13T08:59:16.653Z,96315.47
2018-11-13T09:01:45.012Z,96322.11
2018-11-13T09:04:13.423Z,96331.25
2018-11-13T09:06:41.867Z,96324.73
2018-11-13T09:09:12.272Z,96332.41
2018-11-13T09:11:40.767Z,96329.09
2018-11-13T09:14:09.272Z,96336.09
2018-11-13T09:16:37.711Z,96329.02
2018-11-13T09:19:06.422Z,96329.77
2018-11-13T09:21:34.731Z,96337.45
2018-11-13T09:24:06.122Z,96339.12
2018-11-13T09:26:34.554Z,96348.38
2018-11-13T09:29:05.359Z,96352.78
2018-11-13T09:31:33.798Z,96355.27
2018-11-13T09:34:04.659Z,96353.98
2018-11-13T09:36:33.097Z,96360.14
2018-11-13T09:39:03.718Z,96372.47
2018-11-13T09:41:32.258Z,96372.21
2018-11-13T09:44:00.687Z,96375.17
2018-11-13T09:46:29.529Z,96389.53
2018-11-13T09:48:57.984Z,96393.66
2018-11-13T09:51:26.512Z,96397.21
2018-11-13T09:53:54.907Z,96397.45
2018-11-13T09:56:23.494Z,96401.86
2018-11-13T09:58:51.982Z,96410.80
2018-11-13T10:01:20.690Z,96413.67
2018-11-13T10:03:49.761Z,96414.16
2018-11-13T10:06:17.579Z,96429.58
2018-11-13T10:08:45.991Z,96427.45
2018-11-13T10:11:14.644Z,96432.43
2018-11-13T10:13:43.059Z,96442.98
2018-11-13T10:16:11.484Z,96428.16
2018-11-13T10:18:39.987Z,96448.80
2018-11-13T10:21:08.421Z,96454.64
2018-11-13T10:23:36.834Z,96456.05
2018-11-13T10:26:05.775Z,96441.33
2018-11-13T10:28:34.234Z,96451.27
2018-11-13T10:31:05.264Z,96451.86
2018-11-13T10:33:33.675Z,96460.64
2018-11-13T10:36:05.440Z,96453.44
2018-11-13T10:38:33.870Z,96453.79
2018-11-13T10:41:05.219Z,96458.91
2018-11-13T10:43:33.635Z,96464.13
2018-11-13T10:46:04.514Z,96457.47
2018-11-13T10:48:32.954Z,96459.28
2018-11-13T10:51:04.098Z,96462.92
2018-11-13T10:53:32.533Z,96460.99
2018-11-13T10:56:00.983Z,96470.13
2018-11-13T10:58:29.443Z,96466.21
2018-11-13T11:01:04.102Z,96466.55
2018-11-13T11:03:37.836Z,96470.55
2018-11-13T11:06:06.286Z,96477.78
2018-11-13T11:08:34.818Z,96482.14
2018-11-13T11:11:06.621Z,96481.84
2018-11-13T11:13:35.172Z,96480.16
2018-11-13T11:16:05.266Z,96481.66
2018-11-13T11:18:33.714Z,96489.15
2018-11-13T11:21:05.108Z,96492.36
2018-11-13T11:23:33.648Z,96495.06
2018-11-13T11:26:04.575Z,96498.34
2018-11-13T11:28:33.002Z,96504.31
2018-11-13T11:31:03.414Z,96507.33
2018-11-13T11:33:31.846Z,96509.59
2018-11-13T11:36:00.647Z,96505.28
2018-11-13T11:38:29.109Z,96514.20
2018-11-13T11:40:57.537Z,96519.78
2018-11-13T11:43:25.994Z,96523.05
2018-11-13T11:45:54.426Z,96521.61
2018-11-13T11:48:22.871Z,96532.00
2018-11-13T11:50:51.282Z,96512.69
2018-11-13T11:53:19.703Z,96530.70
2018-11-13T11:55:48.090Z,96531.20
2018-11-13T11:58:16.519Z,96540.39
2018-11-13T12:00:45.003Z,96532.27
2018-11-13T12:03:13.385Z,96538.43
2018-11-13T12:05:42.069Z,96537.21
2018-11-13T12:08:10.522Z,96538.88
2018-11-13T12:10:38.929Z,96541.59
2018-11-13T12:13:07.363Z,96534.89
2018-11-13T12:15:35.798Z,96540.83
2018-11-13T12:18:06.412Z,96530.80
2018-11-13T12:20:34.872Z,96523.48
2018-11-13T12:23:05.334Z,96519.31
2018-11-13T12:25:33.799Z,96520.88
2018-11-13T12:28:04.614Z,96527.64
2018-11-13T12:30:33.061Z,96528.67
2018-11-13T12:33:04.379Z,96526.03
2018-11-13T12:35:32.811Z,96517.64
2018-11-13T12:38:04.922Z,96517.59
2018-11-13T12:40:33.356Z,96523.84
2018-11-13T12:43:02.932Z,96518.59
2018-11-13T12:45:31.350Z,96521.12
2018-11-13T12:47:59.794Z,96523.56
2018-11-13T12:50:33.314Z,96521.70
2018-11-13T12:53:04.662Z,96525.91
2018-11-13T12:55:33.149Z,96518.09
2018-11-13T12:58:03.620Z,96527.55
2018-11-13T13:00:32.062Z,96525.59
2018-11-13T13:03:00.466Z,96517.75
2018-11-13T13:05:29.133Z,96521.69
2018-11-13T13:07:58.105Z,96519.31
2018-11-13T13:10:26.652Z,96519.73
2018-11-13T13:12:55.222Z,96530.97
2018-11-13T13:15:23.639Z,96529.70
2018-11-13T13:17:52.265Z,96543.80
2018-11-13T13:20:22.857Z,96551.30
2018-11-13T13:22:51.659Z,96546.64
2018-11-13T13:25:21.093Z,96546.02
2018-11-13T13:27:49.643Z,96544.98
2018-11-13T13:30:22.631Z,96560.23
2018-11-13T13:32:51.325Z,96552.48
2018-11-13T13:35:57.638Z,96558.88
2018-11-13T13:38:26.093Z,96570.75
2018-11-13T13:40:55.646Z,96585.66
2018-11-13T13:43:24.716Z,96575.47
2018-11-13T13:45:53.127Z,96587.11
2018-11-13T13:48:21.911Z,96588.53
2018-11-13T13:50:50.445Z,96584.92
2018-11-13T13:53:19.522Z,96598.41
2018-11-13T13:55:48.503Z,96608.90
2018-11-13T13:58:17.359Z,96610.28
2018-11-13T14:00:48.900Z,96617.90
2018-11-13T14:03:17.312Z,96616.70
2018-11-13T14:05:46.947Z,96612.23
2018-11-13T14:08:16.047Z,96611.12
2018-11-13T14:10:45.306Z,96621.91
2018-11-13T14:13:14.196Z,96629.05
2018-11-13T14:15:42.670Z,96632.33
2018-11-13T14:18:11.382Z,96635.67
2018-11-13T14:20:39.822Z,96636.73
2018-11-13T14:23:08.331Z,96645.44
2018-11-13T14:25:36.758Z,96654.81
2018-11-13T14:28:05.243Z,96650.56
2018-11-13T14:30:34.963Z,96646.69
2018-11-13T14:33:08.506Z,96644.16
2018-11-13T14:35:37.073Z,96650.21
2018-11-13T14:38:05.769Z,96648.61
2018-11-13T14:40:38.791Z,96645.22
2018-11-13T14:43:07.691Z,96645.52
2018-11-13T14:45:36.167Z,96654.80
2018-11-13T14:48:05.071Z,96658.91
2018-11-13T14:50:34.619Z,96656.38
2018-11-13T14:53:06.287Z,96670.84
2018-11-13T14:55:36.042Z,96667.41
2018-11-13T14:58:06.106Z,96669.57
2018-11-13T15:00:35.771Z,96676.19
2018-11-13T15:03:07.023Z,96670.70
2018-11-13T15:05:35.834Z,96677.50
2018-11-13T15:08:06.562Z,96662.75
2018-11-13T15:10:50.888Z,96678.64
2018-11-13T15:13:20.082Z,96676.33
2018-11-13T15:15:48.567Z,96680.29
2018-11-13T15:18:17.060Z,96686.72
2018-11-13T15:20:46.134Z,96680.95
2018-11-13T15:23:14.866Z,96676.39
2018-11-13T15:25:43.349Z,96683.55
2018-11-13T15:28:12.131Z,96682.88
2018-11-13T15:30:42.379Z,96680.86
2018-11-13T15:33:13.391Z,96699.07
2018-11-13T15:35:42.616Z,96702.34
2018-11-13T15:38:11.539Z,96699.69
2018-11-13T15:40:40.734Z,96711.61
2018-11-13T15:43:09.263Z,96721.23
2018-11-13T15:45:37.811Z,96721.63
2018-11-13T15:48:07.881Z,96729.91
2018-11-13T15:50:37.116Z,96735.67
2018-11-13T15:53:06.985Z,96744.22
2018-11-13T15:55:35.457Z,96742.47
2018-11-13T15:58:06.626Z,96744.26
2018-11-13T16:00:37.511Z,96743.31
2018-11-13T16:03:12.458Z,96744.89
2018-11-13T16:05:47.042Z,96743.77
2018-11-13T16:08:15.480Z,96746.65
2018-11-13T16:10:44.470Z,96751.68
2018-11-13T16:13:13.002Z,96752.53
2018-11-13T16:15:41.779Z,96748.91
2018-11-13T16:18:11.664Z,96769.72
2018-11-13T16:20:40.156Z,96763.11
2018-11-13T16:23:08.576Z,96763.78
2018-11-13T16:25:37.099Z,96770.28
2018-11-13T16:28:05.583Z,96763.32
2018-11-13T16:30:35.559Z,96765.26
2018-11-13T16:33:05.514Z,96772.33
2018-11-13T16:35:34.034Z,96783.02
2018-11-13T16:38:07.587Z,96777.63
2018-11-13T16:40:35.962Z,96778.09
2018-11-13T16:43:07.347Z,96775.95
2018-11-13T16:45:36.102Z,96777.53
2018-11-13T16:48:08.414Z,96782.27
2018-11-13T16:50:39.450Z,96781.25
2018-11-13T16:53:08.074Z,96770.67
2018-11-13T16:55:43.793Z,96768.98
2018-11-13T16:58:15.529Z,96775.77
2018-11-13T17:00:45.353Z,96776.89
2018-11-13T17:03:13.759Z,96781.53
2018-11-13T17:05:42.591Z,96781.25
2018-11-13T17:08:11.362Z,96780.02
2018-11-13T17:10:43.280Z,96787.20
2018-11-13T17:13:12.088Z,96786.07
2018-11-13T17:15:40.643Z,96785.23
2018-11-13T17:18:09.127Z,96787.09
2018-11-13T17:20:39.860Z,96797.59
2018-11-13T17:23:08.307Z,96800.28
2018-11-13T17:25:38.528Z,96794.27
2018-11-13T17:28:07.629Z,96800.66
2018-11-13T17:30:36.611Z,96804.73
2018-11-13T17:33:07.706Z,96803.37
2018-11-13T17:35:36.232Z,96794.61
2018-11-13T17:38:06.881Z,96800.38
2018-11-13T17:40:36.211Z,96802.31
2018-11-13T17:43:06.920Z,96801.75
2018-11-13T17:45:36.661Z,96794.72
2018-11-13T17:48:05.514Z,96792.47
2018-11-13T17:50:36.145Z,96798.16
2018-11-13T17:53:06.125Z,96794.61
2018-11-13T17:55:34.652Z,96790.88
2018-11-13T17:58:07.467Z,96787.38
2018-11-13T18:00:39.067Z,96791.09
2018-11-13T18:03:08.943Z,96789.34
2018-11-13T18:05:37.622Z,96793.95
2018-11-13T18:08:06.759Z,96790.15
2018-11-13T18:10:36.391Z,96801.78
2018-11-13T18:13:06.452Z,96795.73
2018-11-13T18:15:34.930Z,96791.86
2018-11-13T18:18:07.827Z,96792.67
2018-11-13T18:20:37.346Z,96795.09
2018-11-13T18:23:06.809Z,96803.28
2018-11-13T18:25:35.227Z,96806.91
2018-11-13T18:28:07.645Z,96805.96
2018-11-13T18:30:38.156Z,96804.03
2018-11-13T18:33:07.382Z,96809.05
2018-11-13T18:35:37.047Z,96807.53
2018-11-13T18:38:07.673Z,96809.78
2018-11-13T18:40:36.152Z,96806.44
2018-11-13T18:43:06.167Z,96799.73
2018-11-13T18:45:36.041Z,96797.24
2018-11-13T18:48:05.760Z,96799.09
2018-11-13T18:50:35.546Z,96804.30
2018-11-13T18:53:05.275Z,96804.68
2018-11-13T18:55:34.640Z,96807.00
2018-11-13T18:58:06.419Z,96805.97
2018-11-13T19:00:36.543Z,96817.11
2018-11-13T19:03:06.223Z,96828.53
2018-11-13T19:05:34.702Z,96840.52
2018-11-13T19:08:05.584Z,96841.16
2018-11-13T19:10:46.606Z,96833.92
2018-11-13T19:13:16.679Z,96838.48
2018-11-13T19:15:51.991Z,96840.98
2018-11-13T19:18:21.121Z,96842.56
2018-11-13T19:20:49.829Z,96840.23
2018-11-13T19:23:18.898Z,96837.46
2018-11-13T19:25:47.327Z,96828.17
2018-11-13T19:28:15.868Z,96826.12
2018-11-13T19:30:44.382Z,96826.77
2018-11-13T19:33:12.915Z,96828.07
2018-11-13T19:35:42.163Z,96827.89
2018-11-13T19:38:10.441Z,96834.19
2018-11-13T19:40:39.179Z,96829.19
2018-11-13T19:43:08.777Z,96827.22
2018-11-13T19:45:37.616Z,96823.88
2018-11-13T19:48:06.151Z,96830.45
2018-11-13T19:50:36.098Z,96837.52
2018-11-13T19:53:05.202Z,96842.81
2018-11-13T19:55:34.095Z,96836.59
2018-11-13T19:58:03.790Z,96833.92
2018-11-13T20:00:35.559Z,96832.95
2018-11-13T20:03:08.046Z,96845.59
2018-11-13T20:05:36.503Z,96841.97
2018-11-13T20:08:05.999Z,96843.11
2018-11-13T20:10:35.331Z,96840.98
2018-11-13T20:13:06.308Z,96846.60
2018-11-13T20:15:35.364Z,96844.67
2018-11-13T20:18:07.527Z,96849.56
2018-11-13T20:20:36.630Z,96847.92
2018-11-13T20:23:07.211Z,96839.36
2018-11-13T20:25:36.512Z,96841.16
2018-11-13T20:28:05.872Z,96840.51
2018-11-13T20:30:36.343Z,96838.66
2018-11-13T20:33:05.896Z,96839.52
2018-11-13T20:35:34.396Z,96838.52
2018-11-13T20:38:06.839Z,96848.52
2018-11-13T20:40:36.426Z,96846.31
2018-11-13T20:43:10.499Z,96841.02
2018-11-13T20:45:39.066Z,96848.91
2018-11-13T20:48:07.755Z,96846.34
2018-11-13T20:50:36.251Z,96847.39
2018-11-13T20:53:05.871Z,96858.59
2018-11-13T20:55:34.636Z,96858.25
2018-11-13T20:58:08.066Z,96855.16
2018-11-13T21:00:37.211Z,96856.42
2018-11-13T21:03:07.247Z,96863.71
2018-11-13T21:05:38.604Z,96859.66
2018-11-13T21:08:07.155Z,96863.16
2018-11-13T21:10:37.637Z,96863.66
2018-11-13T21:13:07.219Z,96862.86
2018-11-13T21:15:35.915Z,96862.86
2018-11-13T21:18:08.659Z,96860.56
2018-11-13T21:20:37.402Z,96858.87
2018-11-13T21:23:06.197Z,96860.56
2018-11-13T21:25:35.138Z,96864.10
2018-11-13T21:28:08.498Z,96864.04
2018-11-13T21:30:37.197Z,96863.00
2018-11-13T21:33:06.255Z,96864.53
2018-11-13T21:35:35.290Z,96854.53
2018-11-13T21:38:07.281Z,96859.33
2018-11-13T21:40:36.005Z,96859.30
2018-11-13T21:43:05.516Z,96866.83
2018-11-13T21:45:34.895Z,96871.28
2018-11-13T21:48:05.583Z,96870.92
2018-11-13T21:50:34.536Z,96878.78
2018-11-13T21:53:05.264Z,96868.99
2018-11-13T21:55:33.824Z,96876.80
2018-11-13T21:58:04.406Z,96873.75
2018-11-13T22:00:34.078Z,96876.94
2018-11-13T22:03:07.042Z,96876.64
2018-11-13T22:05:36.046Z,96877.64
2018-11-13T22:08:06.807Z,96880.18
2018-11-13T22:10:35.183Z,96885.69
2018-11-13T22:13:05.263Z,96882.29
2018-11-13T22:15:33.666Z,96884.37
2018-11-13T22:18:04.786Z,96885.28
2018-11-13T22:20:33.190Z,96880.38
2018-11-13T22:23:03.719Z,96877.37
2018-11-13T22:25:33.019Z,96879.06
2018-11-13T22:28:03.676Z,96881.75
2018-11-13T22:30:32.683Z,96881.02
2018-11-13T22:33:05.222Z,96877.53
2018-11-13T22:35:33.631Z,96876.78
2018-11-13T22:38:04.860Z,96872.55
2018-11-13T22:40:33.279Z,96879.54
2018-11-13T22:43:03.711Z,96887.42
2018-11-13T22:45:32.140Z,96884.08
2018-11-13T22:48:00.621Z,96882.14
2018-11-13T22:50:31.166Z,96883.93
2018-11-13T22:52:59.618Z,96880.12
2018-11-13T22:55:28.092Z,96879.94
2018-11-13T22:57:57.435Z,96881.97
2018-11-13T23:00:39.819Z,96878.83
2018-11-13T23:03:10.811Z,96883.42
2018-11-13T23:05:39.434Z,96880.73
2018-11-13T23:08:08.827Z,96879.78
2018-11-13T23:10:37.307Z,96878.78
2018-11-13T23:13:06.181Z,96876.82
2018-11-13T23:15:34.293Z,96874.38
2018-11-13T23:18:05.594Z,96875.32
2018-11-13T23:20:34.060Z,96872.97
2018-11-13T23:23:04.579Z,96872.94
2018-11-13T23:25:33.087Z,96870.89
2018-11-13T23:28:04.190Z,96874.00
2018-11-13T23:30:32.656Z,96871.99
2018-11-13T23:33:04.422Z,96873.07
2018-11-13T23:35:32.923Z,96870.56
2018-11-13T23:38:04.058Z,96865.44
2018-11-13T23:40:32.268Z,96870.41
2018-11-13T23:43:00.664Z,96857.38
2018-11-13T23:45:29.088Z,96863.30
2018-11-13T23:47:57.547Z,96862.19
2018-11-13T23:50:26.296Z,96866.61
2018-11-13T23:52:54.503Z,96865.60
2018-11-13T23:55:22.980Z,96862.33
2018-11-13T23:57:51.390Z,96858.20
